Time;durP1;ratioP1;P1;durP2;ratioP2;P2;SDS_P1;SDS_P2;PMS_P1;PMS_P2;Temp;Humidity;BMP_temperature;BMP_pressure;BME280_temperature;BME280_humidity;BME280_pressure;Samples;Min_cycle;Max_cycle;Signal;HPM_P1;HPM_P2
2021/03/26 00:00:42;;;;;;;26.57;16.20;;;7.00;99.90;;;;;;5023001;28;20460;-76
2021/03/26 00:03:10;;;;;;;26.80;17.63;;;6.90;99.90;;;;;;5025278;28;20898;-76
2021/03/26 00:05:37;;;;;;;27.00;16.90;;;6.80;99.90;;;;;;5021721;28;20439;-76
2021/03/26 00:08:06;;;;;;;26.47;16.20;;;6.80;99.90;;;;;;5024427;28;20475;-76
2021/03/26 00:10:33;;;;;;;29.27;16.90;;;6.70;99.90;;;;;;5005410;28;20441;-76
2021/03/26 00:12:59;;;;;;;28.23;16.60;;;6.60;99.90;;;;;;5025179;28;20444;-76
2021/03/26 00:15:25;;;;;;;28.70;17.30;;;6.50;99.90;;;;;;5023152;28;20448;-76
2021/03/26 00:17:51;;;;;;;24.33;15.67;;;6.50;99.90;;;;;;5022644;28;20428;-76
2021/03/26 00:20:16;;;;;;;26.97;15.83;;;6.40;99.90;;;;;;5024455;28;20517;-76
2021/03/26 00:22:42;;;;;;;21.47;15.50;;;6.30;99.90;;;;;;5023080;28;20646;-76
2021/03/26 00:25:09;;;;;;;24.73;16.67;;;6.30;99.90;;;;;;5020559;28;20235;-76
2021/03/26 00:27:34;;;;;;;25.90;15.83;;;6.20;99.90;;;;;;5022449;28;20190;-76
2021/03/26 00:30:00;;;;;;;26.43;15.87;;;6.20;99.90;;;;;;5022949;28;20433;-76
2021/03/26 00:32:26;;;;;;;25.53;15.47;;;6.10;99.90;;;;;;5024768;28;20183;-76
2021/03/26 00:34:54;;;;;;;27.83;16.57;;;6.00;99.90;;;;;;5022391;28;20206;-75
2021/03/26 00:37:20;;;;;;;24.03;14.93;;;6.00;99.90;;;;;;5024763;28;20177;-76
2021/03/26 00:39:45;;;;;;;29.93;16.90;;;5.90;99.90;;;;;;5024298;28;20489;-76
2021/03/26 00:42:11;;;;;;;27.00;17.37;;;5.90;99.90;;;;;;5022271;28;20496;-75
2021/03/26 00:44:37;;;;;;;31.30;17.60;;;5.80;99.90;;;;;;5023607;28;20269;-76
2021/03/26 00:47:03;;;;;;;25.53;15.47;;;5.70;99.90;;;;;;5013991;28;20237;-76
2021/03/26 00:49:28;;;;;;;26.63;15.90;;;5.70;99.90;;;;;;5024126;28;20182;-76
2021/03/26 00:51:54;;;;;;;27.20;16.47;;;5.60;99.90;;;;;;5023481;28;20494;-77
2021/03/26 00:54:20;;;;;;;28.13;16.80;;;5.60;99.90;;;;;;5023360;28;20209;-77
2021/03/26 00:56:46;;;;;;;28.07;15.90;;;5.50;99.90;;;;;;5021823;28;20432;-76
2021/03/26 00:59:12;;;;;;;28.13;16.23;;;5.40;99.90;;;;;;5022051;28;20648;-76
2021/03/26 01:01:39;;;;;;;28.43;15.10;;;5.40;99.90;;;;;;5021968;28;20437;-77
2021/03/26 01:04:05;;;;;;;20.83;15.57;;;5.30;99.90;;;;;;5021215;28;20274;-76
2021/03/26 01:06:31;;;;;;;31.50;17.13;;;5.30;99.90;;;;;;5022084;28;20867;-76
2021/03/26 01:08:57;;;;;;;28.13;16.40;;;5.20;99.90;;;;;;5023135;28;20498;-76
2021/03/26 01:11:27;;;;;;;27.63;15.33;;;5.20;99.90;;;;;;5022883;28;20182;-76
2021/03/26 01:13:55;;;;;;;23.63;14.30;;;5.10;99.90;;;;;;5022807;28;20221;-76
2021/03/26 01:16:22;;;;;;;22.67;15.07;;;5.00;99.90;;;;;;5022047;28;20448;-75
2021/03/26 01:18:48;;;;;;;25.80;14.27;;;5.00;99.90;;;;;;5005637;28;20546;-76
2021/03/26 01:21:19;;;;;;;24.47;14.80;;;4.90;99.90;;;;;;5021975;28;20843;-75
2021/03/26 01:23:45;;;;;;;28.07;16.20;;;4.90;99.90;;;;;;5023023;28;20194;-75
2021/03/26 01:26:11;;;;;;;22.90;14.57;;;4.90;99.90;;;;;;5021981;28;20441;-76
2021/03/26 01:28:37;;;;;;;22.00;15.00;;;4.80;99.90;;;;;;5022089;28;20444;-75
2021/03/26 01:31:03;;;;;;;27.27;15.50;;;4.80;99.90;;;;;;5021953;28;20894;-75
2021/03/26 01:33:29;;;;;;;24.07;15.97;;;4.70;99.90;;;;;;5023732;28;20472;-76
2021/03/26 01:35:56;;;;;;;23.40;14.57;;;4.70;99.90;;;;;;5021820;28;20438;-76
2021/03/26 01:38:22;;;;;;;25.40;16.40;;;4.70;99.90;;;;;;5005308;28;20174;-76
2021/03/26 01:40:51;;;;;;;23.57;14.03;;;4.60;99.90;;;;;;5005711;28;20491;-75
2021/03/26 01:43:30;;;;;;;23.00;14.63;;;4.60;99.90;;;;;;5022231;28;20433;-75
2021/03/26 01:45:57;;;;;;;27.47;16.60;;;4.50;99.90;;;;;;5021142;28;20488;-75
2021/03/26 01:48:30;;;;;;;24.03;15.10;;;4.50;99.90;;;;;;5022630;28;20436;-76
2021/03/26 01:50:56;;;;;;;25.93;15.17;;;4.50;99.90;;;;;;5021731;28;21220;-76
2021/03/26 01:53:24;;;;;;;22.87;14.33;;;4.40;99.90;;;;;;5017855;28;20450;-76
2021/03/26 01:55:52;;;;;;;27.00;17.20;;;4.40;99.90;;;;;;5021327;28;20499;-76
2021/03/26 01:58:20;;;;;;;27.23;15.10;;;4.30;99.90;;;;;;5020299;28;20439;-76
2021/03/26 02:00:56;;;;;;;28.17;16.37;;;4.30;99.90;;;;;;5020680;28;20453;-76
2021/03/26 02:03:28;;;;;;;26.80;16.33;;;4.20;99.90;;;;;;5021687;28;20464;-76
2021/03/26 02:05:57;;;;;;;27.60;15.57;;;4.20;99.90;;;;;;5017774;28;20429;-76
2021/03/26 02:08:30;;;;;;;31.53;15.40;;;4.10;99.90;;;;;;5022214;28;20437;-76
2021/03/26 02:10:59;;;;;;;26.80;15.57;;;4.00;99.90;;;;;;5020656;28;20428;-76
2021/03/26 02:13:28;;;;;;;28.97;15.27;;;4.00;99.90;;;;;;5021466;28;20437;-76
2021/03/26 02:15:56;;;;;;;25.07;14.70;;;4.00;99.90;;;;;;5020646;28;20895;-76
2021/03/26 02:18:35;;;;;;;26.30;14.00;;;4.00;99.90;;;;;;5019727;28;20897;-75
2021/03/26 02:21:05;;;;;;;29.07;16.20;;;3.90;99.90;;;;;;5021135;28;20498;-76
2021/03/26 02:23:35;;;;;;;27.97;15.13;;;3.90;99.90;;;;;;5021032;28;20512;-76
2021/03/26 02:26:03;;;;;;;31.50;14.37;;;3.80;99.90;;;;;;5018812;28;20431;-76
2021/03/26 02:28:29;;;;;;;26.70;14.57;;;3.80;99.90;;;;;;5020794;28;20516;-76
2021/03/26 02:30:57;;;;;;;29.00;15.63;;;3.70;99.90;;;;;;5019894;28;20528;-76
2021/03/26 02:33:24;;;;;;;30.50;16.77;;;3.70;99.90;;;;;;5020577;28;20181;-76
2021/03/26 02:36:13;;;;;;;28.27;15.30;;;3.60;99.90;;;;;;5019787;28;20897;-76
2021/03/26 02:38:54;;;;;;;23.77;14.00;;;3.60;99.90;;;;;;5014106;28;20440;-76
2021/03/26 02:41:34;;;;;;;25.73;14.40;;;3.60;99.90;;;;;;5021624;28;20443;-76
2021/03/26 02:44:03;;;;;;;21.77;13.53;;;3.50;99.90;;;;;;5003756;28;20901;-76
2021/03/26 02:46:32;;;;;;;23.50;13.60;;;3.50;99.90;;;;;;5020262;28;20551;-76
2021/03/26 02:49:20;;;;;;;20.57;13.10;;;3.50;99.90;;;;;;5021803;28;20469;-76
2021/03/26 02:51:54;;;;;;;25.43;15.10;;;3.40;99.90;;;;;;5021458;28;20448;-76
2021/03/26 02:54:31;;;;;;;28.00;15.53;;;3.40;99.90;;;;;;5021389;28;20455;-76
2021/03/26 02:57:03;;;;;;;22.97;14.00;;;3.30;99.90;;;;;;5018745;28;20459;-76
2021/03/26 02:59:54;;;;;;;23.83;13.93;;;3.30;99.90;;;;;;5020696;28;20449;-76
2021/03/26 03:02:22;;;;;;;23.80;14.03;;;3.30;99.90;;;;;;5021037;28;20437;-76
2021/03/26 03:04:51;;;;;;;26.07;15.20;;;3.20;99.90;;;;;;5020939;28;20520;-76
2021/03/26 03:07:38;;;;;;;24.47;13.67;;;3.20;99.90;;;;;;5021641;28;20425;-76
2021/03/26 03:10:26;;;;;;;22.43;14.33;;;3.20;99.90;;;;;;5019884;28;20428;-76
2021/03/26 03:12:59;;;;;;;22.87;13.90;;;3.10;99.90;;;;;;5021139;28;20436;-76
2021/03/26 03:15:28;;;;;;;27.93;13.90;;;3.10;99.90;;;;;;5018801;28;20909;-76
2021/03/26 03:18:09;;;;;;;27.17;14.00;;;3.00;99.90;;;;;;5021170;28;20421;-76
2021/03/26 03:20:46;;;;;;;26.43;14.60;;;3.00;99.90;;;;;;5020679;28;20466;-76
2021/03/26 03:23:24;;;;;;;27.07;14.13;;;3.00;99.90;;;;;;5023196;28;20439;-76
2021/03/26 03:25:59;;;;;;;25.33;14.87;;;2.90;99.90;;;;;;5019094;28;20479;-76
2021/03/26 03:28:40;;;;;;;24.43;14.50;;;2.90;99.90;;;;;;5016610;28;20463;-76
2021/03/26 03:31:34;;;;;;;25.53;14.63;;;2.90;99.90;;;;;;5021238;28;20510;-76
2021/03/26 03:34:18;;;;;;;27.10;15.17;;;2.90;99.90;;;;;;5021250;28;20738;-76
2021/03/26 03:36:55;;;;;;;26.43;13.63;;;2.80;99.90;;;;;;5018498;28;20697;-76
2021/03/26 03:39:37;;;;;;;26.13;15.00;;;2.80;99.90;;;;;;5021982;28;20452;-76
2021/03/26 03:42:15;;;;;;;29.67;15.40;;;2.80;99.90;;;;;;5020272;28;20429;-76
2021/03/26 03:44:40;;;;;;;23.23;14.07;;;2.80;99.90;;;;;;5018612;28;20476;-76
2021/03/26 03:47:24;;;;;;;26.10;14.90;;;2.70;99.90;;;;;;5021284;28;20554;-76
2021/03/26 03:50:01;;;;;;;26.37;14.80;;;2.70;99.90;;;;;;5019497;28;20736;-76
2021/03/26 03:52:42;;;;;;;26.20;15.83;;;2.70;99.90;;;;;;5020257;28;20479;-76
2021/03/26 03:55:26;;;;;;;24.20;14.40;;;2.70;99.90;;;;;;5019060;28;20462;-76
2021/03/26 03:58:11;;;;;;;28.90;16.60;;;2.60;99.90;;;;;;5021139;28;20416;-76
2021/03/26 04:00:57;;;;;;;28.73;16.20;;;2.60;99.90;;;;;;5018660;28;20944;-76
2021/03/26 04:03:32;;;;;;;32.20;16.50;;;2.60;99.90;;;;;;5021298;28;20514;-76
2021/03/26 04:06:05;;;;;;;26.43;17.13;;;2.60;99.90;;;;;;5001485;28;20956;-76
2021/03/26 04:08:34;;;;;;;32.37;17.30;;;2.60;99.90;;;;;;5021101;28;20877;-76
2021/03/26 04:11:13;;;;;;;30.33;17.20;;;2.50;99.90;;;;;;5019268;28;20440;-76
2021/03/26 04:13:44;;;;;;;36.90;18.10;;;2.60;99.90;;;;;;5021073;28;20597;-76
2021/03/26 04:16:17;;;;;;;31.87;16.70;;;2.50;99.90;;;;;;5019482;28;21017;-76
2021/03/26 04:18:49;;;;;;;30.03;16.90;;;2.50;99.90;;;;;;5021876;28;20764;-76
2021/03/26 04:21:30;;;;;;;33.00;16.30;;;2.50;99.90;;;;;;5020832;28;20421;-76
2021/03/26 04:23:55;;;;;;;29.30;16.37;;;2.50;99.90;;;;;;5020370;28;20937;-76
2021/03/26 04:26:28;;;;;;;27.70;16.40;;;2.50;99.90;;;;;;5017062;28;20920;-76
2021/03/26 04:29:10;;;;;;;27.70;16.60;;;2.40;99.90;;;;;;5023139;28;20537;-77
2021/03/26 04:31:48;;;;;;;26.30;15.80;;;2.40;99.90;;;;;;5005531;28;20453;-76
2021/03/26 04:34:14;;;;;;;28.87;14.73;;;2.40;99.90;;;;;;5024389;28;20436;-76
2021/03/26 04:36:48;;;;;;;33.90;18.17;;;2.40;99.90;;;;;;5024193;28;20481;-76
2021/03/26 04:39:23;;;;;;;29.77;16.77;;;2.50;99.90;;;;;;5023663;28;20454;-76
2021/03/26 04:42:08;;;;;;;29.67;17.50;;;2.60;99.90;;;;;;5024711;28;20466;-76
2021/03/26 04:44:54;;;;;;;28.10;16.30;;;2.60;99.90;;;;;;5023918;28;20428;-76
2021/03/26 04:47:28;;;;;;;31.93;20.50;;;2.60;99.90;;;;;;5024049;28;20434;-76
2021/03/26 04:50:39;;;;;;;35.53;20.10;;;2.70;99.90;;;;;;5021665;28;20437;-76
2021/03/26 04:53:15;;;;;;;33.67;17.30;;;2.70;99.90;;;;;;4974661;28;20475;-75
2021/03/26 04:55:49;;;;;;;28.80;16.87;;;2.70;99.90;;;;;;5022224;28;20814;-76
2021/03/26 04:58:26;;;;;;;32.67;18.33;;;2.80;99.90;;;;;;5023672;28;20433;-76
2021/03/26 05:01:10;;;;;;;32.40;17.60;;;2.80;99.90;;;;;;5009372;28;20469;-76
2021/03/26 05:03:38;;;;;;;30.20;17.13;;;2.80;99.90;;;;;;5020814;28;20427;-76
2021/03/26 05:06:31;;;;;;;30.73;16.63;;;2.80;99.90;;;;;;5018460;28;20439;-76
2021/03/26 05:09:05;;;;;;;32.77;18.03;;;2.80;99.90;;;;;;5022368;28;20428;-76
2021/03/26 05:11:35;;;;;;;36.43;18.97;;;2.80;99.90;;;;;;5024286;28;20447;-76
2021/03/26 05:14:10;;;;;;;32.00;17.80;;;2.80;99.90;;;;;;5022628;28;20438;-76
2021/03/26 05:16:58;;;;;;;37.67;18.20;;;2.80;99.90;;;;;;5020731;28;20510;-76
2021/03/26 05:19:51;;;;;;;35.90;17.63;;;2.80;99.90;;;;;;5021870;28;20787;-76
2021/03/26 05:22:36;;;;;;;31.47;18.30;;;2.80;99.90;;;;;;5023833;28;20462;-76
2021/03/26 05:25:14;;;;;;;38.77;19.33;;;2.80;99.90;;;;;;5022296;28;20508;-76
2021/03/26 05:27:39;;;;;;;32.43;18.77;;;2.90;99.90;;;;;;5022930;28;20440;-76
2021/03/26 05:30:08;;;;;;;34.73;17.93;;;3.00;99.90;;;;;;5020375;28;20676;-76
2021/03/26 05:32:46;;;;;;;36.20;19.70;;;3.00;99.90;;;;;;5022604;28;20675;-76
2021/03/26 05:35:28;;;;;;;37.03;19.47;;;3.00;99.90;;;;;;5022836;28;22627;-76
2021/03/26 05:37:56;;;;;;;37.00;19.53;;;3.10;99.90;;;;;;5006941;28;20443;-76
2021/03/26 05:40:36;;;;;;;36.23;19.50;;;3.10;99.90;;;;;;5023460;28;20470;-76
2021/03/26 05:43:05;;;;;;;35.47;19.37;;;3.10;99.90;;;;;;5022820;28;20444;-76
2021/03/26 05:46:08;;;;;;;31.97;18.20;;;3.10;99.90;;;;;;5020615;28;20429;-76
2021/03/26 05:48:39;;;;;;;35.37;19.10;;;3.00;99.90;;;;;;5020782;28;20481;-76
2021/03/26 05:51:40;;;;;;;37.40;20.23;;;3.00;99.90;;;;;;5022171;28;20742;-76
2021/03/26 05:54:33;;;;;;;33.73;17.90;;;3.00;99.90;;;;;;5023593;28;20462;-76
2021/03/26 05:57:09;;;;;;;40.27;18.60;;;3.00;99.90;;;;;;5022971;28;20449;-76
2021/03/26 05:59:40;;;;;;;35.47;19.80;;;3.10;99.90;;;;;;5021951;28;20524;-76
2021/03/26 06:02:05;;;;;;;32.57;19.07;;;3.10;99.90;;;;;;5019070;28;20441;-76
2021/03/26 06:04:42;;;;;;;38.07;21.10;;;3.20;99.90;;;;;;5022299;28;20444;-76
2021/03/26 06:07:31;;;;;;;32.30;17.87;;;3.20;99.90;;;;;;5023697;28;20178;-76
2021/03/26 06:10:26;;;;;;;38.10;19.43;;;3.20;99.90;;;;;;5003969;28;20776;-76
2021/03/26 06:13:01;;;;;;;39.17;19.97;;;3.30;99.90;;;;;;5021287;28;20489;-76
2021/03/26 06:16:04;;;;;;;38.43;21.73;;;3.40;99.90;;;;;;5019954;28;20439;-76
2021/03/26 06:19:07;;;;;;;35.40;18.60;;;3.50;99.90;;;;;;5021670;28;20534;-76
2021/03/26 06:22:03;;;;;;;38.20;20.97;;;3.60;99.90;;;;;;5020731;28;20915;-76
2021/03/26 06:24:40;;;;;;;34.97;19.23;;;3.60;99.90;;;;;;5018117;28;20531;-76
2021/03/26 06:27:32;;;;;;;31.73;17.80;;;3.70;99.90;;;;;;5020546;28;22796;-76
2021/03/26 06:30:18;;;;;;;38.70;19.13;;;3.70;99.90;;;;;;5022543;28;20764;-76
2021/03/26 06:33:22;;;;;;;39.57;20.57;;;3.80;99.90;;;;;;5020692;28;20493;-76
2021/03/26 06:36:00;;;;;;;46.87;21.40;;;3.90;99.90;;;;;;5018412;28;20853;-76
2021/03/26 06:38:34;;;;;;;42.33;21.43;;;4.00;99.90;;;;;;5021199;28;20431;-75
2021/03/26 06:41:23;;;;;;;37.13;20.30;;;4.10;99.90;;;;;;5021935;28;20477;-76
2021/03/26 06:44:15;;;;;;;44.50;24.03;;;4.20;99.90;;;;;;5022086;28;20432;-76
2021/03/26 06:46:53;;;;;;;50.57;26.67;;;4.40;99.90;;;;;;5015426;28;20426;-75
2021/03/26 06:49:56;;;;;;;54.97;26.37;;;4.50;99.90;;;;;;5017560;28;21764;-76
2021/03/26 06:52:53;;;;;;;57.00;28.83;;;4.80;99.90;;;;;;5019524;28;20474;-76
2021/03/26 06:55:56;;;;;;;61.80;27.60;;;5.10;99.90;;;;;;5019847;28;20433;-77
2021/03/26 06:58:22;;;;;;;67.00;32.50;;;5.40;99.90;;;;;;5018989;28;20508;-76
2021/03/26 07:01:00;;;;;;;76.00;34.87;;;5.70;99.90;;;;;;5019239;28;20471;-76
2021/03/26 07:03:28;;;;;;;75.13;34.90;;;5.90;99.90;;;;;;5019489;28;20184;-76
2021/03/26 07:06:26;;;;;;;80.10;35.53;;;6.10;99.90;;;;;;5020050;28;20479;-75
2021/03/26 07:09:12;;;;;;;68.60;34.50;;;6.20;99.90;;;;;;5021539;28;20897;-76
2021/03/26 07:11:59;;;;;;;76.00;35.10;;;6.40;99.90;;;;;;5022592;28;20429;-76
2021/03/26 07:14:47;;;;;;;64.43;31.97;;;6.40;99.90;;;;;;5022996;28;20425;-76
2021/03/26 07:17:47;;;;;;;76.77;37.07;;;6.40;99.90;;;;;;5021095;28;20429;-76
2021/03/26 07:20:43;;;;;;;74.90;34.87;;;6.40;99.90;;;;;;5020432;28;20488;-76
2021/03/26 07:23:31;;;;;;;76.90;38.27;;;6.50;99.90;;;;;;5002952;28;20435;-76
2021/03/26 07:26:22;;;;;;;71.10;35.47;;;6.70;99.90;;;;;;5020799;28;20433;-77
2021/03/26 07:29:27;;;;;;;73.87;36.53;;;6.80;99.90;;;;;;5004579;28;20428;-76
2021/03/26 07:32:13;;;;;;;75.60;36.87;;;6.80;99.90;;;;;;5017513;28;20913;-76
2021/03/26 07:34:44;;;;;;;74.23;36.70;;;7.20;99.90;;;;;;5016958;28;20558;-76
2021/03/26 07:37:27;;;;;;;63.33;34.80;;;7.30;99.90;;;;;;5018350;28;20770;-76
2021/03/26 07:40:07;;;;;;;75.87;37.07;;;7.30;99.90;;;;;;5020575;28;20463;-76
2021/03/26 07:43:10;;;;;;;69.87;35.37;;;7.20;99.90;;;;;;5022353;28;20416;-76
2021/03/26 07:46:13;;;;;;;61.70;35.37;;;7.40;99.90;;;;;;5021377;28;20432;-76
2021/03/26 07:49:16;;;;;;;63.20;32.00;;;7.60;99.90;;;;;;4945094;28;20456;-76
2021/03/26 07:51:53;;;;;;;68.00;34.70;;;7.70;99.90;;;;;;5016441;28;20526;-76
2021/03/26 07:54:41;;;;;;;60.87;32.27;;;7.80;99.90;;;;;;5018868;28;20939;-76
2021/03/26 07:57:28;;;;;;;60.27;31.93;;;7.90;99.90;;;;;;5019320;28;20890;-76
2021/03/26 07:59:57;;;;;;;59.37;31.63;;;8.00;99.90;;;;;;5018700;28;20461;-76
2021/03/26 08:02:40;;;;;;;56.53;31.37;;;8.00;99.90;;;;;;5022144;28;20448;-86
2021/03/26 08:05:31;;;;;;;52.87;28.80;;;8.10;99.90;;;;;;5023277;28;20420;-83
2021/03/26 08:08:34;;;;;;;55.83;30.20;;;8.20;99.90;;;;;;5006970;28;20494;-83
2021/03/26 08:11:22;;;;;;;59.03;33.93;;;8.20;99.90;;;;;;5008087;28;20482;-82
2021/03/26 08:14:20;;;;;;;50.57;29.07;;;8.40;99.90;;;;;;5008308;28;20917;-83
2021/03/26 08:16:55;;;;;;;48.20;28.50;;;8.70;99.90;;;;;;5021523;28;20435;-82
2021/03/26 08:19:43;;;;;;;45.13;27.33;;;8.80;99.90;;;;;;5025467;28;20533;-83
2021/03/26 08:22:26;;;;;;;47.33;25.83;;;8.90;99.90;;;;;;5016781;28;20484;-83
2021/03/26 08:25:28;;;;;;;45.43;25.13;;;9.00;99.90;;;;;;5028207;28;20429;-84
2021/03/26 08:28:21;;;;;;;43.67;24.27;;;9.20;99.90;;;;;;5013965;28;20495;-83
2021/03/26 08:31:07;;;;;;;41.97;23.97;;;9.30;99.90;;;;;;5022498;28;20464;-82
2021/03/26 08:33:44;;;;;;;37.77;23.20;;;9.30;99.90;;;;;;5023027;28;20425;-83
2021/03/26 08:36:29;;;;;;;36.93;22.63;;;9.40;99.90;;;;;;5024959;28;20429;-82
2021/03/26 08:39:16;;;;;;;36.10;21.67;;;9.50;99.90;;;;;;5024534;28;20432;-82
2021/03/26 08:41:46;;;;;;;32.20;19.67;;;9.60;99.90;;;;;;5024196;28;20422;-81
2021/03/26 08:44:18;;;;;;;30.40;18.87;;;9.80;99.90;;;;;;5024769;28;20460;-82
2021/03/26 08:46:47;;;;;;;32.50;20.47;;;9.80;99.90;;;;;;5027828;28;20448;-81
2021/03/26 08:49:49;;;;;;;35.57;18.53;;;9.80;99.90;;;;;;5030773;28;20428;-83
2021/03/26 08:52:41;;;;;;;29.70;19.03;;;9.90;99.90;;;;;;5000377;28;20440;-84
2021/03/26 08:55:41;;;;;;;29.77;18.73;;;10.00;99.90;;;;;;5015447;28;21221;-86
2021/03/26 08:58:21;;;;;;;31.83;17.53;;;10.10;99.90;;;;;;5027864;28;20433;-81
2021/03/26 09:01:05;;;;;;;23.90;16.53;;;10.20;99.90;;;;;;5024491;28;20448;-81
2021/03/26 09:03:37;;;;;;;24.20;14.33;;;10.30;99.90;;;;;;5023685;28;20424;-81
2021/03/26 09:06:14;;;;;;;23.23;15.77;;;10.60;99.90;;;;;;5024121;28;20886;-83
2021/03/26 09:09:04;;;;;;;23.87;13.43;;;10.70;99.90;;;;;;5023305;28;20428;-82
2021/03/26 09:11:54;;;;;;;24.30;15.97;;;10.70;99.90;;;;;;5020467;28;20442;-78
2021/03/26 09:14:35;;;;;;;21.70;14.07;;;10.80;99.90;;;;;;5024400;28;20898;-83
2021/03/26 09:17:16;;;;;;;17.03;12.10;;;11.00;99.90;;;;;;5022761;28;20433;-83
2021/03/26 09:19:54;;;;;;;20.83;13.00;;;11.10;99.90;;;;;;5022964;28;20457;-82
2021/03/26 09:22:57;;;;;;;19.50;13.03;;;11.00;99.90;;;;;;5022933;28;20532;-83
2021/03/26 09:25:45;;;;;;;17.47;13.00;;;11.20;99.90;;;;;;5023681;28;20429;-80
2021/03/26 09:28:22;;;;;;;21.27;13.70;;;11.30;99.90;;;;;;5024017;28;20401;-82
2021/03/26 09:30:58;;;;;;;23.00;12.00;;;11.40;99.90;;;;;;5023423;28;20424;-86
2021/03/26 09:33:24;;;;;;;14.93;11.13;;;11.40;99.90;;;;;;5025652;28;20409;-77
2021/03/26 09:35:54;;;;;;;17.30;10.97;;;11.50;99.90;;;;;;5009658;28;20432;-85
2021/03/26 09:38:35;;;;;;;17.00;11.23;;;11.50;99.90;;;;;;5025100;28;20556;-87
2021/03/26 09:41:25;;;;;;;14.43;10.93;;;11.60;99.90;;;;;;5023640;28;20455;-85
2021/03/26 09:44:27;;;;;;;15.13;11.30;;;11.70;99.90;;;;;;5022701;28;20435;-84
2021/03/26 09:47:14;;;;;;;15.63;10.70;;;11.80;99.90;;;;;;5024135;28;20982;-89
2021/03/26 09:49:48;;;;;;;16.00;11.53;;;11.90;99.90;;;;;;5022807;28;20432;-81
2021/03/26 09:52:36;;;;;;;17.93;12.17;;;12.10;99.90;;;;;;5020040;28;20428;-81
2021/03/26 09:55:09;;;;;;;16.30;11.37;;;12.20;99.90;;;;;;5023828;28;20441;-85
2021/03/26 09:57:56;;;;;;;14.90;11.40;;;12.30;99.90;;;;;;5024372;28;20426;-78
2021/03/26 10:00:34;;;;;;;18.43;12.07;;;12.30;99.90;;;;;;5033706;28;20860;-81
2021/03/26 10:03:44;;;;;;;17.90;11.20;;;12.40;99.90;;;;;;5022795;28;20433;-81
2021/03/26 10:06:51;;;;;;;18.80;12.37;;;12.50;99.90;;;;;;4999721;28;20485;-81
2021/03/26 10:09:36;;;;;;;17.17;11.40;;;12.70;99.90;;;;;;5021263;28;20431;-78
2021/03/26 10:12:21;;;;;;;17.97;11.43;;;12.80;99.90;;;;;;5023164;28;20910;-77
2021/03/26 10:15:00;;;;;;;18.20;11.60;;;12.60;99.90;;;;;;5023866;28;20428;-84
2021/03/26 10:18:22;;;;;;;21.23;12.23;;;12.70;99.90;;;;;;5024827;28;20464;-85
2021/03/26 10:21:08;;;;;;;18.40;12.20;;;12.70;99.90;;;;;;4930230;29;20468;-82
2021/03/26 10:23:57;;;;;;;18.87;12.70;;;13.00;99.90;;;;;;4928047;29;20452;-82
2021/03/26 10:26:39;;;;;;;18.37;12.37;;;13.30;99.90;;;;;;4996559;28;20874;-81
2021/03/26 10:29:19;;;;;;;13.63;10.20;;;13.40;99.90;;;;;;5020457;28;20424;-81
2021/03/26 10:31:47;;;;;;;16.60;10.60;;;13.50;99.90;;;;;;5021503;28;20491;-84
2021/03/26 10:34:17;;;;;;;17.07;12.50;;;13.50;99.90;;;;;;5019295;28;20740;-84
2021/03/26 10:37:17;;;;;;;16.13;10.33;;;13.50;99.90;;;;;;5019452;28;20425;-81
2021/03/26 10:40:09;;;;;;;16.43;11.77;;;13.50;99.90;;;;;;5021048;28;20453;-81
2021/03/26 10:43:04;;;;;;;16.93;11.67;;;13.70;99.90;;;;;;5022292;28;20421;-81
2021/03/26 10:46:06;;;;;;;12.80;10.07;;;13.90;99.90;;;;;;5020737;28;20496;-86
2021/03/26 10:49:00;;;;;;;10.57;9.07;;;14.20;99.90;;;;;;5007047;28;20476;-84
2021/03/26 10:51:47;;;;;;;15.97;10.83;;;14.50;99.90;;;;;;5022218;28;20425;-80
2021/03/26 10:54:50;;;;;;;15.20;10.97;;;14.70;99.90;;;;;;4995107;28;641968;-82
2021/03/26 10:57:30;;;;;;;16.20;11.73;;;14.70;99.90;;;;;;4992543;28;20186;-84
2021/03/26 11:00:02;;;;;;;12.83;9.43;;;14.50;99.90;;;;;;5004328;28;20464;-83
2021/03/26 11:02:51;;;;;;;11.23;9.37;;;14.40;99.90;;;;;;5022207;28;20425;-81
2021/03/26 11:06:01;;;;;;;14.07;8.23;;;14.30;99.90;;;;;;5012020;28;20436;-80
2021/03/26 11:08:40;;;;;;;14.40;10.33;;;14.40;99.90;;;;;;5018420;28;20536;-76
2021/03/26 11:11:09;;;;;;;12.30;10.20;;;14.40;99.90;;;;;;5020748;28;20425;-78
2021/03/26 11:14:06;;;;;;;15.97;9.90;;;14.20;99.90;;;;;;5019837;28;20922;-79
2021/03/26 11:16:58;;;;;;;14.40;9.20;;;14.30;99.90;;;;;;5020664;28;20436;-79
2021/03/26 11:19:45;;;;;;;13.33;9.40;;;14.40;99.90;;;;;;5020688;28;20478;-82
2021/03/26 11:22:17;;;;;;;10.17;8.63;;;14.40;99.90;;;;;;5019577;28;20425;-83
2021/03/26 11:24:58;;;;;;;16.30;10.53;;;14.50;99.90;;;;;;5020690;28;20436;-82
2021/03/26 11:27:30;;;;;;;12.20;10.23;;;14.60;99.90;;;;;;5021033;28;20420;-83
2021/03/26 11:30:18;;;;;;;16.63;9.50;;;14.90;99.90;;;;;;5019804;28;20492;-82
2021/03/26 11:32:47;;;;;;;12.57;8.83;;;15.20;99.90;;;;;;5019637;28;20444;-80
2021/03/26 11:35:17;;;;;;;13.70;10.50;;;15.20;99.90;;;;;;5019719;28;20527;-82
2021/03/26 11:37:59;;;;;;;14.60;9.63;;;15.10;99.90;;;;;;5024241;28;20440;-83
2021/03/26 11:40:48;;;;;;;13.83;10.77;;;15.10;99.90;;;;;;5025670;28;20464;-82
2021/03/26 11:43:25;;;;;;;14.53;10.23;;;15.00;99.90;;;;;;5024811;28;20432;-80
2021/03/26 11:46:07;;;;;;;12.10;9.50;;;15.00;99.90;;;;;;5007468;28;20531;-81
2021/03/26 11:48:37;;;;;;;13.97;11.40;;;15.00;99.90;;;;;;5025235;28;20472;-82
2021/03/26 11:51:27;;;;;;;13.07;10.53;;;15.30;99.90;;;;;;5007595;28;20441;-80
2021/03/26 11:54:03;;;;;;;17.13;12.43;;;15.40;99.90;;;;;;5024091;28;20447;-82
2021/03/26 11:56:41;;;;;;;13.67;10.00;;;15.60;99.90;;;;;;5023113;28;20976;-83
2021/03/26 11:59:22;;;;;;;15.40;10.97;;;16.10;99.90;;;;;;5024744;28;20437;-80
2021/03/26 12:02:07;;;;;;;14.63;11.13;;;16.50;99.90;;;;;;5024686;28;20475;-80
2021/03/26 12:04:59;;;;;;;15.17;12.10;;;16.70;99.90;;;;;;5022089;28;20442;-80
2021/03/26 12:07:34;;;;;;;16.60;11.90;;;16.30;99.90;;;;;;5017334;28;20447;-80
2021/03/26 12:10:13;;;;;;;18.50;12.63;;;16.00;99.90;;;;;;5024541;28;20431;-80
2021/03/26 12:12:49;;;;;;;16.80;13.87;;;15.60;99.90;;;;;;5024500;28;20436;-79
2021/03/26 12:15:28;;;;;;;18.93;13.97;;;16.00;99.90;;;;;;5024267;28;20438;-80
2021/03/26 12:18:25;;;;;;;19.40;13.43;;;16.30;99.90;;;;;;5025235;28;20955;-80
2021/03/26 12:21:12;;;;;;;17.60;13.13;;;16.70;99.90;;;;;;5023819;28;20459;-81
2021/03/26 12:23:49;;;;;;;16.17;12.60;;;16.80;99.90;;;;;;5024953;28;20524;-79
2021/03/26 12:26:43;;;;;;;19.87;14.30;;;17.10;99.90;;;;;;5024131;28;21140;-79
2021/03/26 12:29:45;;;;;;;17.57;12.93;;;17.40;99.90;;;;;;5024174;28;20428;-80
2021/03/26 12:32:26;;;;;;;18.00;13.13;;;17.60;99.90;;;;;;5014516;28;20413;-79
2021/03/26 12:34:58;;;;;;;19.70;14.60;;;17.70;99.90;;;;;;5024072;28;20425;-79
2021/03/26 12:37:41;;;;;;;20.83;14.97;;;17.70;99.90;;;;;;5022165;28;20530;-80
2021/03/26 12:40:27;;;;;;;20.73;15.30;;;17.70;99.90;;;;;;5023550;28;20464;-82
2021/03/26 12:43:18;;;;;;;20.60;14.90;;;18.00;99.90;;;;;;5025758;28;20433;-82
2021/03/26 12:45:55;;;;;;;19.83;15.27;;;18.00;99.90;;;;;;5026287;28;20436;-78
2021/03/26 12:48:39;;;;;;;19.87;14.43;;;17.30;99.90;;;;;;5022747;28;20424;-78
2021/03/26 12:51:30;;;;;;;19.03;16.37;;;16.70;99.90;;;;;;5024723;28;20463;-80
2021/03/26 12:54:16;;;;;;;18.30;15.17;;;16.60;99.90;;;;;;4997027;28;20471;-81
2021/03/26 12:56:53;;;;;;;17.47;14.57;;;17.00;99.90;;;;;;5023422;28;20433;-79
2021/03/26 12:59:24;;;;;;;17.93;14.10;;;17.40;99.90;;;;;;5022899;28;21016;-78
2021/03/26 13:02:18;;;;;;;20.03;14.03;;;17.70;99.90;;;;;;5023625;28;20512;-80
2021/03/26 13:04:56;;;;;;;20.73;15.30;;;17.70;99.90;;;;;;5020548;28;20543;-78
2021/03/26 13:07:30;;;;;;;14.93;12.13;;;17.40;99.90;;;;;;5013633;28;20436;-77
2021/03/26 13:10:02;;;;;;;16.93;12.23;;;16.80;99.90;;;;;;5023344;28;20448;-77
2021/03/26 13:12:35;;;;;;;15.97;14.23;;;17.00;99.90;;;;;;5022249;28;20445;-75
2021/03/26 13:15:24;;;;;;;16.17;12.43;;;17.40;99.90;;;;;;5022548;28;20432;-74
2021/03/26 13:18:11;;;;;;;15.77;12.27;;;17.40;99.90;;;;;;5022817;28;20491;-76
2021/03/26 13:21:24;;;;;;;17.90;13.67;;;17.20;99.90;;;;;;5022397;28;20470;-76
2021/03/26 13:24:09;;;;;;;15.90;11.50;;;16.90;99.90;;;;;;5024716;28;20428;-72
2021/03/26 13:26:38;;;;;;;16.43;12.23;;;17.00;99.90;;;;;;5022990;28;20439;-72
2021/03/26 13:29:13;;;;;;;19.60;13.10;;;17.10;99.90;;;;;;5020886;28;20440;-72
2021/03/26 13:31:40;;;;;;;15.63;11.73;;;17.30;99.90;;;;;;5011875;28;20536;-72
2021/03/26 13:34:18;;;;;;;17.07;13.47;;;17.50;99.90;;;;;;5020300;28;20432;-73
2021/03/26 13:36:59;;;;;;;16.10;13.70;;;17.30;99.90;;;;;;5020772;28;20515;-73